createdAt,value
2018-10-04T00:00:50.369Z,1025.56
2018-10-04T00:01:59.981Z,1025.55
2018-10-04T00:03:09.888Z,1025.54
2018-10-04T00:04:19.797Z,1025.53
2018-10-04T00:05:29.715Z,1025.52
2018-10-04T00:06:39.331Z,1025.54
2018-10-04T00:07:48.403Z,1025.55
2018-10-04T00:08:58.292Z,1025.54
2018-10-04T00:10:07.908Z,1025.51
2018-10-04T00:11:17.533Z,1025.56
2018-10-04T00:12:27.156Z,1025.54
2018-10-04T00:13:36.498Z,1025.51
2018-10-04T00:14:46.387Z,1025.5
2018-10-04T00:15:56.010Z,1025.51
2018-10-04T00:17:06.179Z,1025.53
2018-10-04T00:18:15.794Z,1025.53
2018-10-04T00:19:25.144Z,1025.53
2018-10-04T00:20:35.310Z,1025.53
2018-10-04T00:21:45.479Z,1025.56
2018-10-04T00:22:55.375Z,1025.54
2018-10-04T00:24:05.276Z,1025.59
2018-10-04T00:25:14.951Z,1025.54
2018-10-04T00:26:24.576Z,1025.55
2018-10-04T00:27:34.468Z,1025.5
2018-10-04T00:28:44.366Z,1025.52
2018-10-04T00:29:53.984Z,1025.49
2018-10-04T00:31:04.156Z,1025.46
2018-10-04T00:32:13.502Z,1025.47
2018-10-04T00:33:23.419Z,1025.44
2018-10-04T00:34:33.038Z,1025.43
2018-10-04T00:35:42.934Z,1025.46
2018-10-04T00:36:52.600Z,1025.43
2018-10-04T00:38:02.498Z,1025.41
2018-10-04T00:39:12.404Z,1025.38
2018-10-04T00:40:22.301Z,1025.38
2018-10-04T00:41:32.245Z,1025.37
2018-10-04T00:42:42.412Z,1025.37
2018-10-04T00:43:52.579Z,1025.37
2018-10-04T00:45:02.521Z,1025.37
2018-10-04T00:46:12.212Z,1025.37
2018-10-04T00:47:22.391Z,1025.38
2018-10-04T00:48:32.008Z,1025.38
2018-10-04T00:49:42.178Z,1025.39
2018-10-04T00:50:52.086Z,1025.41
2018-10-04T00:52:01.692Z,1025.39
2018-10-04T00:53:11.037Z,1025.4
2018-10-04T00:54:20.658Z,1025.4
2018-10-04T00:55:30.560Z,1025.4
2018-10-04T00:56:40.182Z,1025.41
2018-10-04T00:57:49.804Z,1025.36
2018-10-04T00:58:59.471Z,1025.4
2018-10-04T01:00:08.817Z,1025.4
2018-10-04T01:01:18.983Z,1025.37
2018-10-04T01:02:28.325Z,1025.35
2018-10-04T01:03:37.952Z,1025.34
2018-10-04T01:04:47.844Z,1025.33
2018-10-04T01:05:57.792Z,1025.32
2018-10-04T01:07:07.686Z,1025.29
2018-10-04T01:08:17.576Z,1025.3
2018-10-04T01:09:26.922Z,1025.24
2018-10-04T01:10:36.867Z,1025.28
2018-10-04T01:11:46.215Z,1025.24
2018-10-04T01:12:56.385Z,1025.22
2018-10-04T01:14:06.546Z,1025.26
2018-10-04T01:15:16.443Z,1025.22
2018-10-04T01:16:26.335Z,1025.19
2018-10-04T01:17:36.227Z,1025.19
2018-10-04T01:18:45.854Z,1025.16
2018-10-04T01:19:55.739Z,1025.16
2018-10-04T01:21:05.118Z,1025.19
2018-10-04T01:22:15.292Z,1025.17
2018-10-04T01:23:24.908Z,1025.15
2018-10-04T01:24:34.532Z,1025.17
2018-10-04T01:25:44.153Z,1025.15
2018-10-04T01:26:54.053Z,1025.11
2018-10-04T01:28:04.220Z,1025.08
2018-10-04T01:29:13.842Z,1025.07
2018-10-04T01:30:23.453Z,1025.07
2018-10-04T01:31:33.374Z,1025.08
2018-10-04T01:32:43.482Z,1025.03
2018-10-04T01:33:52.826Z,1025.04
2018-10-04T01:35:02.730Z,1025.01
2018-10-04T01:36:12.897Z,1024.97
2018-10-04T01:37:22.789Z,1025.02
2018-10-04T01:38:32.140Z,1024.98
2018-10-04T01:39:42.048Z,1025
2018-10-04T01:40:52.221Z,1025.01
2018-10-04T01:42:01.838Z,1024.98
2018-10-04T01:43:11.463Z,1024.98
2018-10-04T01:44:21.084Z,1025
2018-10-04T01:45:31.100Z,1024.98
2018-10-04T01:46:40.444Z,1024.98
2018-10-04T01:47:50.067Z,1025
2018-10-04T01:49:00.234Z,1025
2018-10-04T01:50:10.409Z,1025
2018-10-04T01:51:20.025Z,1025.02
2018-10-04T01:52:29.639Z,1024.99
2018-10-04T01:53:39.252Z,1025
2018-10-04T01:54:48.595Z,1024.97
2018-10-04T01:55:58.478Z,1024.94
2018-10-04T01:57:08.102Z,1024.95
2018-10-04T01:58:17.773Z,1024.95
2018-10-04T01:59:27.674Z,1024.93
2018-10-04T02:00:37.564Z,1024.92
2018-10-04T02:01:47.457Z,1024.92
2018-10-04T02:02:57.085Z,1024.91
2018-10-04T02:04:06.977Z,1024.9
2018-10-04T02:05:17.145Z,1024.92
2018-10-04T02:06:27.041Z,1024.87
2018-10-04T02:07:36.933Z,1024.91
2018-10-04T02:08:47.151Z,1024.88
2018-10-04T02:09:56.764Z,1024.84
2018-10-04T02:11:06.674Z,1024.84
2018-10-04T02:12:16.836Z,1024.82
2018-10-04T02:13:26.729Z,1024.84
2018-10-04T02:14:36.894Z,1024.82
2018-10-04T02:15:46.794Z,1024.84
2018-10-04T02:16:56.409Z,1024.78
2018-10-04T02:18:06.582Z,1024.79
2018-10-04T02:19:16.203Z,1024.78
2018-10-04T02:20:26.382Z,1024.81
2018-10-04T02:21:36.288Z,1024.84
2018-10-04T02:22:45.630Z,1024.88
2018-10-04T02:23:55.245Z,1024.84
2018-10-04T02:25:05.136Z,1024.85
2018-10-04T02:26:14.826Z,1024.83
2018-10-04T02:27:24.170Z,1024.83
2018-10-04T02:28:34.341Z,1024.77
2018-10-04T02:29:43.971Z,1024.75
2018-10-04T02:30:53.589Z,1024.76
2018-10-04T02:32:03.208Z,1024.78
2018-10-04T02:33:13.377Z,1024.8
2018-10-04T02:34:23.265Z,1024.78
2018-10-04T02:35:32.882Z,1024.77
2018-10-04T02:36:42.825Z,1024.79
2018-10-04T02:37:52.174Z,1024.83
2018-10-04T02:39:01.805Z,1024.74
2018-10-04T02:40:11.426Z,1024.75
2018-10-04T02:41:21.362Z,1024.76
2018-10-04T02:42:31.626Z,1024.71
2018-10-04T02:43:42.081Z,1024.69
2018-10-04T02:44:52.302Z,1024.7
2018-10-04T02:46:02.202Z,1024.79
2018-10-04T02:47:12.091Z,1024.75
2018-10-04T02:48:21.987Z,1024.76
2018-10-04T02:49:31.601Z,1024.74
2018-10-04T02:50:41.560Z,1024.76
2018-10-04T02:51:51.747Z,1024.74
2018-10-04T02:53:01.639Z,1024.75
2018-10-04T02:54:11.263Z,1024.7
2018-10-04T02:55:21.166Z,1024.74
2018-10-04T02:56:31.055Z,1024.74
2018-10-04T02:57:40.956Z,1024.73
2018-10-04T02:58:51.126Z,1024.77
2018-10-04T03:00:00.753Z,1024.72
2018-10-04T03:01:10.375Z,1024.76
2018-10-04T03:02:19.989Z,1024.78
2018-10-04T03:03:30.165Z,1024.76
2018-10-04T03:04:40.382Z,1024.81
2018-10-04T03:05:50.556Z,1024.74
2018-10-04T03:07:00.446Z,1024.82
2018-10-04T03:08:10.609Z,1024.77
2018-10-04T03:09:20.787Z,1024.83
2018-10-04T03:10:30.994Z,1024.76
2018-10-04T03:11:40.893Z,1024.76
2018-10-04T03:12:50.512Z,1024.77
2018-10-04T03:14:00.143Z,1024.77
2018-10-04T03:15:10.032Z,1024.8
2018-10-04T03:16:20.201Z,1024.81
2018-10-04T03:17:30.093Z,1024.77
2018-10-04T03:18:40.263Z,1024.74
2018-10-04T03:19:49.613Z,1024.75
2018-10-04T03:21:00.005Z,1024.73
2018-10-04T03:22:09.625Z,1024.78
2018-10-04T03:23:19.541Z,1024.75
2018-10-04T03:24:29.714Z,1024.81
2018-10-04T03:25:39.901Z,1024.77
2018-10-04T03:26:49.539Z,1024.75
2018-10-04T03:27:59.717Z,1024.79
2018-10-04T03:29:09.331Z,1024.76
2018-10-04T03:30:19.482Z,1024.77
2018-10-04T03:31:28.908Z,1024.78
2018-10-04T03:32:38.813Z,1024.81
2018-10-04T03:33:49.000Z,1024.83
2018-10-04T03:34:59.225Z,1024.81
2018-10-04T03:36:08.293Z,1024.77
2018-10-04T03:37:18.456Z,1024.78
2018-10-04T03:38:28.358Z,1024.78
2018-10-04T03:39:38.575Z,1024.72
2018-10-04T03:40:48.245Z,1024.74
2018-10-04T03:41:58.414Z,1024.76
2018-10-04T03:43:08.304Z,1024.73
2018-10-04T03:44:18.020Z,1024.75
2018-10-04T03:45:28.676Z,1024.72
2018-10-04T03:46:38.300Z,1024.71
2018-10-04T03:47:48.477Z,1024.69
2018-10-04T03:48:58.399Z,1024.68
2018-10-04T03:50:07.750Z,1024.66
2018-10-04T03:51:16.818Z,1024.69
2018-10-04T03:52:26.702Z,1024.7
2018-10-04T03:53:36.047Z,1024.69
2018-10-04T03:54:45.947Z,1024.65
2018-10-04T03:55:55.845Z,1024.69
2018-10-04T03:57:05.198Z,1024.63
2018-10-04T03:58:15.370Z,1024.62
2018-10-04T03:59:25.268Z,1024.61
2018-10-04T04:00:34.893Z,1024.62
2018-10-04T04:01:44.512Z,1024.62
2018-10-04T04:02:54.424Z,1024.61
2018-10-04T04:04:04.437Z,1024.61
2018-10-04T04:05:14.795Z,1024.65
2018-10-04T04:06:24.687Z,1024.62
2018-10-04T04:07:34.035Z,1024.61
2018-10-04T04:08:44.199Z,1024.59
2018-10-04T04:09:53.543Z,1024.64
2018-10-04T04:11:03.724Z,1024.63
2018-10-04T04:12:13.621Z,1024.6
2018-10-04T04:13:23.518Z,1024.62
2018-10-04T04:14:33.142Z,1024.59
2018-10-04T04:15:43.037Z,1024.61
2018-10-04T04:16:52.946Z,1024.62
2018-10-04T04:18:02.836Z,1024.6
2018-10-04T04:19:12.729Z,1024.63
2018-10-04T04:20:22.352Z,1024.64
2018-10-04T04:21:31.751Z,1024.65
2018-10-04T04:22:41.092Z,1024.65
2018-10-04T04:23:50.453Z,1024.67
2018-10-04T04:25:00.338Z,1024.66
2018-10-04T04:26:10.142Z,1024.69
2018-10-04T04:27:20.081Z,1024.66
2018-10-04T04:28:30.245Z,1024.68
2018-10-04T04:29:40.417Z,1024.69
2018-10-04T04:30:50.698Z,1024.72
2018-10-04T04:32:00.770Z,1024.73
2018-10-04T04:33:11.062Z,1024.72
2018-10-04T04:34:20.949Z,1024.72
2018-10-04T04:35:30.835Z,1024.72
2018-10-04T04:36:40.727Z,1024.74
2018-10-04T04:37:50.654Z,1024.67
2018-10-04T04:39:00.276Z,1024.7
2018-10-04T04:40:10.175Z,1024.63
2018-10-04T04:41:19.526Z,1024.63
2018-10-04T04:42:29.154Z,1024.65
2018-10-04T04:43:38.770Z,1024.73
2018-10-04T04:44:48.714Z,1024.74
2018-10-04T04:45:58.618Z,1024.75
2018-10-04T04:47:08.294Z,1024.76
2018-10-04T04:48:18.586Z,1024.74
2018-10-04T04:49:28.208Z,1024.73
2018-10-04T04:50:37.833Z,1024.75
2018-10-04T04:51:47.728Z,1024.77
2018-10-04T04:52:57.688Z,1024.74
2018-10-04T04:54:07.645Z,1024.81
2018-10-04T04:55:17.257Z,1024.79
2018-10-04T04:56:27.154Z,1024.79
2018-10-04T04:57:37.048Z,1024.71
2018-10-04T04:58:46.949Z,1024.74
2018-10-04T04:59:56.844Z,1024.79
2018-10-04T05:01:06.745Z,1024.79
2018-10-04T05:02:16.093Z,1024.77
2018-10-04T05:03:25.992Z,1024.77
2018-10-04T05:04:36.168Z,1024.79
2018-10-04T05:05:46.060Z,1024.79
2018-10-04T05:06:56.288Z,1024.83
2018-10-04T05:08:06.180Z,1024.76
2018-10-04T05:09:16.089Z,1024.77
2018-10-04T05:10:25.705Z,1024.78
2018-10-04T05:11:35.607Z,1024.75
2018-10-04T05:12:45.498Z,1024.76
2018-10-04T05:13:55.440Z,1024.73
2018-10-04T05:15:05.073Z,1024.74
2018-10-04T05:16:15.239Z,1024.7
2018-10-04T05:17:25.409Z,1024.71
2018-10-04T05:18:35.302Z,1024.71
2018-10-04T05:19:45.211Z,1024.69
2018-10-04T05:20:55.377Z,1024.72
2018-10-04T05:22:05.267Z,1024.74
2018-10-04T05:23:15.239Z,1024.72
2018-10-04T05:24:25.437Z,1024.71
2018-10-04T05:25:35.602Z,1024.75
2018-10-04T05:26:45.498Z,1024.73
2018-10-04T05:27:55.209Z,1024.74
2018-10-04T05:29:04.614Z,1024.7
2018-10-04T05:30:14.510Z,1024.76
2018-10-04T05:31:24.672Z,1024.72
2018-10-04T05:32:34.018Z,1024.78
2018-10-04T05:33:43.923Z,1024.78
2018-10-04T05:34:54.102Z,1024.82
2018-10-04T05:36:03.723Z,1024.81
2018-10-04T05:37:13.530Z,1024.81
2018-10-04T05:38:23.989Z,1024.83
2018-10-04T05:39:33.333Z,1024.85
2018-10-04T05:40:43.222Z,1024.82
2018-10-04T05:41:52.576Z,1024.82
2018-10-04T05:43:02.795Z,1024.81
2018-10-04T05:44:13.001Z,1024.81
2018-10-04T05:45:23.177Z,1024.83
2018-10-04T05:46:34.153Z,1024.84
2018-10-04T05:47:43.775Z,1024.85
2018-10-04T05:48:53.736Z,1024.82
2018-10-04T05:50:03.356Z,1024.84
2018-10-04T05:51:12.699Z,1024.84
2018-10-04T05:52:22.597Z,1024.86
2018-10-04T05:53:32.897Z,1024.9
2018-10-04T05:54:42.558Z,1024.87
2018-10-04T05:55:52.183Z,1024.89
2018-10-04T05:57:02.358Z,1024.91
2018-10-04T05:58:11.480Z,1024.89
2018-10-04T05:59:21.402Z,1024.93
2018-10-04T06:00:31.665Z,1024.98
2018-10-04T06:01:41.556Z,1024.96
2018-10-04T06:02:51.178Z,1024.96
2018-10-04T06:04:00.799Z,1024.95
2018-10-04T06:05:10.564Z,1024.95
2018-10-04T06:06:20.660Z,1024.92
2018-10-04T06:07:30.550Z,1024.94
2018-10-04T06:08:40.165Z,1024.94
2018-10-04T06:09:49.558Z,1024.95
2018-10-04T06:10:59.443Z,1025.01
2018-10-04T06:12:09.064Z,1025.01
2018-10-04T06:13:19.240Z,1025.03
2018-10-04T06:14:29.409Z,1025.04
2018-10-04T06:15:39.492Z,1025.02
2018-10-04T06:16:49.398Z,1025.05
2018-10-04T06:17:58.744Z,1025.15
2018-10-04T06:19:08.366Z,1025.15
2018-10-04T06:20:18.538Z,1025.18
2018-10-04T06:21:28.705Z,1025.23
2018-10-04T06:22:38.597Z,1025.2
2018-10-04T06:23:48.222Z,1025.23
2018-10-04T06:24:57.846Z,1025.21
2018-10-04T06:26:07.463Z,1025.27
2018-10-04T06:27:17.095Z,1025.26
2018-10-04T06:28:26.736Z,1025.35
2018-10-04T06:29:36.579Z,1025.31
2018-10-04T06:30:46.200Z,1025.3
2018-10-04T06:31:55.831Z,1025.33
2018-10-04T06:33:05.171Z,1025.3
2018-10-04T06:34:15.345Z,1025.32
2018-10-04T06:35:24.778Z,1025.31
2018-10-04T06:36:34.930Z,1025.36
2018-10-04T06:37:45.106Z,1025.35
2018-10-04T06:38:55.055Z,1025.38
2018-10-04T06:40:04.743Z,1025.37
2018-10-04T06:41:15.278Z,1025.35
2018-10-04T06:42:25.170Z,1025.32
2018-10-04T06:43:34.794Z,1025.33
2018-10-04T06:44:44.967Z,1025.33
2018-10-04T06:45:55.139Z,1025.3
2018-10-04T06:47:05.033Z,1025.3
2018-10-04T06:48:14.651Z,1025.29
2018-10-04T06:49:24.597Z,1025.31
2018-10-04T06:50:33.941Z,1025.32
2018-10-04T06:51:43.560Z,1025.35
2018-10-04T06:52:53.176Z,1025.35
2018-10-04T06:54:02.797Z,1025.32
2018-10-04T06:55:12.745Z,1025.33
2018-10-04T06:56:22.651Z,1025.29
2018-10-04T06:57:31.997Z,1025.33
2018-10-04T06:58:41.764Z,1025.38
2018-10-04T06:59:51.657Z,1025.38
2018-10-04T07:01:01.549Z,1025.44
2018-10-04T07:02:10.348Z,1025.43
2018-10-04T07:03:20.526Z,1025.44
2018-10-04T07:04:30.590Z,1025.46
2018-10-04T07:05:40.480Z,1025.48
2018-10-04T07:06:50.101Z,1025.48
2018-10-04T07:07:59.713Z,1025.48
2018-10-04T07:09:09.340Z,1025.52
2018-10-04T07:10:19.243Z,1025.48
2018-10-04T07:11:29.143Z,1025.49
2018-10-04T07:12:38.767Z,1025.49
2018-10-04T07:13:48.940Z,1025.47
2018-10-04T07:14:58.839Z,1025.47
2018-10-04T07:16:08.733Z,1025.46
2018-10-04T07:17:18.084Z,1025.49
2018-10-04T07:18:27.989Z,1025.52
2018-10-04T07:19:37.887Z,1025.51
2018-10-04T07:20:47.793Z,1025.52
2018-10-04T07:21:57.245Z,1025.52
2018-10-04T07:23:06.862Z,1025.54
2018-10-04T07:24:17.039Z,1025.56
2018-10-04T07:25:26.394Z,1025.55
2018-10-04T07:26:36.022Z,1025.52
2018-10-04T07:27:45.637Z,1025.5
2018-10-04T07:28:55.518Z,1025.54
2018-10-04T07:30:05.146Z,1025.56
2018-10-04T07:31:14.783Z,1025.55
2018-10-04T07:32:24.678Z,1025.59
2018-10-04T07:33:34.858Z,1025.57
2018-10-04T07:34:44.802Z,1025.6
2018-10-04T07:35:54.569Z,1025.64
2018-10-04T07:37:04.207Z,1025.6
2018-10-04T07:38:13.619Z,1025.62
2018-10-04T07:39:23.516Z,1025.63
2018-10-04T07:40:33.692Z,1025.6
2018-10-04T07:41:43.317Z,1025.67
2018-10-04T07:42:53.803Z,1025.66
2018-10-04T07:44:03.700Z,1025.64
2018-10-04T07:45:13.049Z,1025.6
2018-10-04T07:46:23.215Z,1025.62
2018-10-04T07:47:32.831Z,1025.61
2018-10-04T07:48:42.445Z,1025.68
2018-10-04T07:49:52.073Z,1025.63
2018-10-04T07:51:01.790Z,1025.62
2018-10-04T07:52:11.417Z,1025.61
2018-10-04T07:53:21.309Z,1025.65
2018-10-04T07:54:31.476Z,1025.63
2018-10-04T07:55:41.386Z,1025.68
2018-10-04T07:56:51.003Z,1025.68
2018-10-04T07:58:01.168Z,1025.65
2018-10-04T07:59:10.794Z,1025.72
2018-10-04T08:00:20.495Z,1025.67
2018-10-04T08:01:30.395Z,1025.69
2018-10-04T08:02:40.335Z,1025.66
2018-10-04T08:03:50.252Z,1025.7
2018-10-04T08:04:59.647Z,1025.7
2018-10-04T08:06:09.914Z,1025.7
2018-10-04T08:07:21.343Z,1025.69
2018-10-04T08:08:30.964Z,1025.76
2018-10-04T08:09:40.903Z,1025.75
2018-10-04T08:10:50.858Z,1025.79
2018-10-04T08:12:00.475Z,1025.79
2018-10-04T08:13:10.368Z,1025.78
2018-10-04T08:14:19.994Z,1025.81
2018-10-04T08:15:30.245Z,1025.86
2018-10-04T08:16:40.665Z,1025.85
2018-10-04T08:17:50.834Z,1025.88
2018-10-04T08:19:00.184Z,1025.91
2018-10-04T08:20:10.080Z,1025.84
2018-10-04T08:21:19.708Z,1025.88
2018-10-04T08:22:29.655Z,1025.9
2018-10-04T08:23:39.553Z,1025.9
2018-10-04T08:24:48.909Z,1025.86
2018-10-04T08:25:58.530Z,1025.92
2018-10-04T08:27:08.151Z,1025.95
2018-10-04T08:28:17.544Z,1025.94
2018-10-04T08:29:27.165Z,1025.97
2018-10-04T08:30:36.509Z,1025.97
2018-10-04T08:31:46.126Z,1025.95
2018-10-04T08:32:56.020Z,1025.92
2018-10-04T08:34:06.247Z,1025.94
2018-10-04T08:35:16.167Z,1025.94
2018-10-04T08:36:25.911Z,1025.92
2018-10-04T08:37:36.092Z,1025.96
2018-10-04T08:38:46.261Z,1025.95
2018-10-04T08:39:56.432Z,1025.98
2018-10-04T08:41:06.055Z,1025.93
2018-10-04T08:42:16.229Z,1025.96
2018-10-04T08:43:25.901Z,1025.95
2018-10-04T08:44:35.813Z,1025.99
2018-10-04T08:45:45.479Z,1025.98
2018-10-04T08:46:55.100Z,1025.97
2018-10-04T08:48:05.049Z,1025.98
2018-10-04T08:49:15.542Z,1025.98
2018-10-04T08:50:25.437Z,1026.02
2018-10-04T08:51:35.325Z,1026.02
2018-10-04T08:52:45.502Z,1026.01
2018-10-04T08:53:55.143Z,1025.98
2018-10-04T08:55:05.099Z,1026.03
2018-10-04T08:56:14.724Z,1026
2018-10-04T08:57:24.995Z,1026.05
2018-10-04T08:58:34.619Z,1026.03
2018-10-04T08:59:44.788Z,1026
2018-10-04T09:00:54.405Z,1026.04
2018-10-04T09:02:03.752Z,1026.01
2018-10-04T09:03:13.375Z,1026.01
2018-10-04T09:04:23.276Z,1026.03
2018-10-04T09:05:32.898Z,1026.02
2018-10-04T09:06:42.799Z,1025.97
2018-10-04T09:07:53.045Z,1026.02
2018-10-04T09:09:02.872Z,1025.98
2018-10-04T09:10:12.503Z,1025.97
2018-10-04T09:11:22.397Z,1025.99
2018-10-04T09:12:32.299Z,1025.98
2018-10-04T09:13:42.203Z,1026
2018-10-04T09:14:51.825Z,1026.04
2018-10-04T09:16:01.717Z,1026
2018-10-04T09:17:11.621Z,1026.04
2018-10-04T09:18:20.974Z,1026.08
2018-10-04T09:19:30.874Z,1026.07
2018-10-04T09:20:40.272Z,1026.06
2018-10-04T09:21:49.898Z,1026.09
2018-10-04T09:22:59.524Z,1026.08
2018-10-04T09:24:09.148Z,1026.07
2018-10-04T09:25:19.047Z,1026.09
2018-10-04T09:26:29.074Z,1026.13
2018-10-04T09:27:39.422Z,1026.08
2018-10-04T09:28:49.045Z,1026.05
2018-10-04T09:29:59.261Z,1026.07
2018-10-04T09:31:09.156Z,1026.05
2018-10-04T09:32:18.824Z,1026.04
2018-10-04T09:33:28.728Z,1026.04
2018-10-04T09:34:38.625Z,1026.11
2018-10-04T09:35:48.246Z,1026.11
2018-10-04T09:36:58.190Z,1026.09
2018-10-04T09:38:08.419Z,1026.14
2018-10-04T09:39:17.767Z,1026.12
2018-10-04T09:40:27.670Z,1026.08
2018-10-04T09:41:37.845Z,1026.09
2018-10-04T09:42:47.741Z,1026.09
2018-10-04T09:43:57.972Z,1026.02
2018-10-04T09:45:07.874Z,1026.09
2018-10-04T09:46:16.991Z,1026.06
2018-10-04T09:47:27.273Z,1026.02
2018-10-04T09:48:37.245Z,1026
2018-10-04T09:49:47.339Z,1025.99
2018-10-04T09:50:56.963Z,1025.94
2018-10-04T09:52:06.309Z,1025.97
2018-10-04T09:53:16.484Z,1025.97
2018-10-04T09:54:26.966Z,1025.97
2018-10-04T09:55:36.864Z,1026.01
2018-10-04T09:56:46.486Z,1025.96
2018-10-04T09:57:56.111Z,1025.95
2018-10-04T09:59:05.739Z,1025.91
2018-10-04T10:00:15.644Z,1025.95
2018-10-04T10:01:25.820Z,1025.88
2018-10-04T10:02:35.991Z,1025.89
2018-10-04T10:03:46.174Z,1025.88
2018-10-04T10:04:56.345Z,1025.85
2018-10-04T10:06:06.519Z,1025.91
2018-10-04T10:07:16.687Z,1025.91
2018-10-04T10:08:26.856Z,1025.89
2018-10-04T10:09:36.479Z,1025.88
2018-10-04T10:10:46.654Z,1025.91
2018-10-04T10:11:56.821Z,1025.91
2018-10-04T10:13:06.784Z,1025.91
2018-10-04T10:14:16.411Z,1025.87
2018-10-04T10:15:26.034Z,1025.89
2018-10-04T10:16:35.666Z,1025.9
2018-10-04T10:17:45.579Z,1025.85
2018-10-04T10:18:55.751Z,1025.82
2018-10-04T10:20:05.375Z,1025.86
2018-10-04T10:21:14.730Z,1025.89
2018-10-04T10:22:24.644Z,1025.9
2018-10-04T10:23:34.819Z,1025.77
2018-10-04T10:24:44.457Z,1025.87
2018-10-04T10:25:54.080Z,1025.86
2018-10-04T10:27:03.979Z,1025.85
2018-10-04T10:28:14.063Z,1025.84
2018-10-04T10:29:23.954Z,1025.9
2018-10-04T10:30:34.126Z,1025.87
2018-10-04T10:31:43.751Z,1025.85
2018-10-04T10:32:53.924Z,1025.88
2018-10-04T10:34:03.822Z,1025.91
2018-10-04T10:35:13.768Z,1025.92
2018-10-04T10:36:23.951Z,1025.91
2018-10-04T10:37:33.583Z,1025.91
2018-10-04T10:38:43.484Z,1025.87
2018-10-04T10:39:53.483Z,1025.85
2018-10-04T10:41:03.794Z,1025.79
2018-10-04T10:42:13.960Z,1025.9
2018-10-04T10:43:23.852Z,1025.83
2018-10-04T10:44:34.026Z,1025.82
2018-10-04T10:45:43.932Z,1025.82
2018-10-04T10:46:54.108Z,1025.82
2018-10-04T10:48:03.743Z,1025.83
2018-10-04T10:49:13.643Z,1025.77
2018-10-04T10:50:23.266Z,1025.83
2018-10-04T10:51:32.894Z,1025.78
2018-10-04T10:52:42.526Z,1025.8
2018-10-04T10:53:52.152Z,1025.79
2018-10-04T10:55:02.057Z,1025.79
2018-10-04T10:56:11.681Z,1025.76
2018-10-04T10:57:21.857Z,1025.8
2018-10-04T10:58:31.757Z,1025.77
2018-10-04T10:59:41.391Z,1025.74
2018-10-04T11:00:51.025Z,1025.8
2018-10-04T11:02:01.178Z,1025.8
2018-10-04T11:03:10.800Z,1025.8
2018-10-04T11:04:20.422Z,1025.79
2018-10-04T11:05:30.095Z,1025.72
2018-10-04T11:06:39.997Z,1025.73
2018-10-04T11:07:49.896Z,1025.72
2018-10-04T11:09:00.067Z,1025.72
2018-10-04T11:10:09.757Z,1025.74
2018-10-04T11:11:19.761Z,1025.68
2018-10-04T11:12:29.676Z,1025.68
2018-10-04T11:13:39.310Z,1025.67
2018-10-04T11:14:49.228Z,1025.69
2018-10-04T11:15:58.576Z,1025.68
2018-10-04T11:17:08.324Z,1025.67
2018-10-04T11:18:18.470Z,1025.64
2018-10-04T11:19:28.365Z,1025.68
2018-10-04T11:20:37.987Z,1025.67
2018-10-04T11:21:48.162Z,1025.63
2018-10-04T11:22:57.514Z,1025.65
2018-10-04T11:24:07.145Z,1025.66
2018-10-04T11:25:17.197Z,1025.62
2018-10-04T11:26:27.099Z,1025.61
2018-10-04T11:27:36.727Z,1025.61
2018-10-04T11:28:46.623Z,1025.59
2018-10-04T11:29:56.567Z,1025.62
2018-10-04T11:31:06.463Z,1025.63
2018-10-04T11:32:16.365Z,1025.59
2018-10-04T11:33:26.269Z,1025.62
2018-10-04T11:34:36.164Z,1025.63
2018-10-04T11:35:45.838Z,1025.6
2018-10-04T11:36:55.461Z,1025.6
2018-10-04T11:38:05.370Z,1025.62
2018-10-04T11:39:15.607Z,1025.61
2018-10-04T11:40:26.278Z,1025.62
2018-10-04T11:41:36.171Z,1025.64
2018-10-04T11:42:45.792Z,1025.64
2018-10-04T11:43:55.979Z,1025.64
2018-10-04T11:45:05.873Z,1025.64
2018-10-04T11:46:15.232Z,1025.66
2018-10-04T11:47:24.314Z,1025.65
2018-10-04T11:48:34.574Z,1025.61
2018-10-04T11:49:43.300Z,1025.58
2018-10-04T11:50:52.925Z,1025.59
2018-10-04T11:52:02.553Z,1025.59
2018-10-04T11:53:12.729Z,1025.59
2018-10-04T11:54:22.674Z,1025.58
2018-10-04T11:55:32.515Z,1025.55
2018-10-04T11:56:42.733Z,1025.58
2018-10-04T11:57:52.657Z,1025.55
2018-10-04T11:59:02.662Z,1025.49
2018-10-04T12:00:12.284Z,1025.49
2018-10-04T12:01:22.487Z,1025.47
2018-10-04T12:02:32.791Z,1025.5
2018-10-04T12:03:43.303Z,1025.47
2018-10-04T12:04:53.479Z,1025.45
2018-10-04T12:06:03.112Z,1025.45
2018-10-04T12:07:13.052Z,1025.47
2018-10-04T12:08:23.664Z,1025.44
2018-10-04T12:09:33.299Z,1025.49
2018-10-04T12:10:43.251Z,1025.47
2018-10-04T12:11:52.873Z,1025.45
2018-10-04T12:13:02.321Z,1025.47
2018-10-04T12:14:12.497Z,1025.5
2018-10-04T12:15:22.392Z,1025.46
2018-10-04T12:16:32.290Z,1025.49
2018-10-04T12:17:42.467Z,1025.46
2018-10-04T12:18:52.448Z,1025.48
2018-10-04T12:20:03.122Z,1025.48
2018-10-04T12:21:12.748Z,1025.47
2018-10-04T12:22:22.924Z,1025.47
2018-10-04T12:23:32.548Z,1025.48
2018-10-04T12:24:42.224Z,1025.51
2018-10-04T12:25:52.365Z,1025.51
2018-10-04T12:27:01.991Z,1025.47
2018-10-04T12:28:11.619Z,1025.47
2018-10-04T12:29:21.529Z,1025.45
2018-10-04T12:30:31.475Z,1025.4
2018-10-04T12:31:41.996Z,1025.41
2018-10-04T12:32:51.621Z,1025.43
2018-10-04T12:34:01.520Z,1025.49
2018-10-04T12:35:11.418Z,1025.43
2018-10-04T12:36:21.595Z,1025.43
2018-10-04T12:37:31.565Z,1025.4
2018-10-04T12:38:42.274Z,1025.4
2018-10-04T12:39:52.183Z,1025.4
2018-10-04T12:41:01.531Z,1025.41
2018-10-04T12:42:10.605Z,1025.41
2018-10-04T12:43:20.777Z,1025.39
2018-10-04T12:44:30.671Z,1025.42
2018-10-04T12:45:40.607Z,1025.43
2018-10-04T12:46:50.792Z,1025.39
2018-10-04T12:48:00.958Z,1025.41
2018-10-04T12:49:10.854Z,1025.38
2018-10-04T12:50:20.488Z,1025.41
2018-10-04T12:51:30.661Z,1025.37
2018-10-04T12:52:40.991Z,1025.34
2018-10-04T12:53:50.872Z,1025.34
2018-10-04T12:55:00.774Z,1025.32
2018-10-04T12:56:10.440Z,1025.32
2018-10-04T12:57:20.120Z,1025.27
2018-10-04T12:58:30.303Z,1025.28
2018-10-04T12:59:39.924Z,1025.27
2018-10-04T13:00:49.401Z,1025.3
2018-10-04T13:01:59.706Z,1025.25
2018-10-04T13:03:09.879Z,1025.26
2018-10-04T13:04:19.503Z,1025.21
2018-10-04T13:05:29.126Z,1025.27
2018-10-04T13:06:38.864Z,1025.22
2018-10-04T13:07:49.495Z,1025.19
2018-10-04T13:08:59.727Z,1025.19
2018-10-04T13:10:09.631Z,1025.22
2018-10-04T13:11:19.253Z,1025.22
2018-10-04T13:12:29.142Z,1025.13
2018-10-04T13:13:38.884Z,1025.18
2018-10-04T13:14:49.162Z,1025.13
2018-10-04T13:15:59.060Z,1025.13
2018-10-04T13:17:08.960Z,1025.16
2018-10-04T13:18:18.588Z,1025.13
2018-10-04T13:19:28.211Z,1025.1
2018-10-04T13:20:38.263Z,1025.12
2018-10-04T13:21:48.852Z,1025.17
2018-10-04T13:22:58.207Z,1025.12
2018-10-04T13:24:08.109Z,1025.12
2018-10-04T13:25:18.015Z,1025.09
2018-10-04T13:26:27.364Z,1025.08
2018-10-04T13:27:37.020Z,1025.11
2018-10-04T13:28:46.772Z,1025.08
2018-10-04T13:29:56.403Z,1025.09
2018-10-04T13:31:06.300Z,1025.06
2018-10-04T13:32:16.476Z,1025.07
2018-10-04T13:33:25.858Z,1025.08
2018-10-04T13:34:36.098Z,1025.12
2018-10-04T13:35:46.010Z,1025.04
2018-10-04T13:36:55.627Z,1025.07
2018-10-04T13:38:05.799Z,1025.03
2018-10-04T13:39:15.457Z,1025.02
2018-10-04T13:40:25.083Z,1025
2018-10-04T13:41:35.041Z,1025.02
2018-10-04T13:42:44.948Z,1024.99
2018-10-04T13:43:54.899Z,1024.96
2018-10-04T13:45:04.839Z,1024.99
2018-10-04T13:46:15.581Z,1024.95
2018-10-04T13:47:24.831Z,1024.99
2018-10-04T13:48:34.729Z,1025
2018-10-04T13:49:44.404Z,1024.96
2018-10-04T13:50:54.575Z,1024.93
2018-10-04T13:52:04.007Z,1024.89
2018-10-04T13:53:13.353Z,1024.89
2018-10-04T13:54:22.984Z,1024.93
2018-10-04T13:55:32.603Z,1024.94
2018-10-04T13:56:41.952Z,1024.95
2018-10-04T13:57:51.312Z,1024.96
2018-10-04T13:59:01.590Z,1024.95
2018-10-04T14:00:11.757Z,1024.95
2018-10-04T14:01:21.702Z,1024.93
2018-10-04T14:02:31.099Z,1024.93
2018-10-04T14:03:41.992Z,1024.91
2018-10-04T14:04:51.610Z,1024.87
2018-10-04T14:06:01.849Z,1024.86
2018-10-04T14:07:11.312Z,1024.81
2018-10-04T14:08:20.937Z,1024.84